Time;durP1;ratioP1;P1;durP2;ratioP2;P2;SDS_P1;SDS_P2;PMS_P1;PMS_P2;Temp;Humidity;BMP_temperature;BMP_pressure;BME280_temperature;BME280_humidity;BME280_pressure;Samples;Min_cycle;Max_cycle;Signal;HPM_P1;HPM_P2
2023/01/07 00:02:41;;;;;;;;;;;17.90;56.10;;;;;;10244965;28;870;-75
2023/01/07 00:07:36;;;;;;;;;;;17.90;56.00;;;;;;10244194;28;1902;-75
2023/01/07 00:12:31;;;;;;;;;;;17.90;56.00;;;;;;10244089;28;835;-75
2023/01/07 00:17:27;;;;;;;;;;;17.90;56.00;;;;;;10243133;28;839;-75
2023/01/07 00:22:22;;;;;;;;;;;17.90;56.00;;;;;;10244193;28;826;-75
2023/01/07 00:27:17;;;;;;;;;;;17.90;55.90;;;;;;10244591;28;1898;-75
2023/01/07 00:32:13;;;;;;;;;;;18.00;56.00;;;;;;10243657;28;1182;-75
2023/01/07 00:47:36;;;;;;;;;;;17.90;55.90;;;;;;10243112;28;1977;-75
2023/01/07 00:52:32;;;;;;;;;;;18.00;55.90;;;;;;10244187;28;798;-75
2023/01/07 00:57:27;;;;;;;;;;;18.00;55.90;;;;;;10242693;28;903;-75
2023/01/07 01:02:22;;;;;;;;;;;18.00;55.80;;;;;;10242605;28;957;-75
2023/01/07 01:07:18;;;;;;;;;;;18.00;55.90;;;;;;10243047;28;1955;-74
2023/01/07 01:12:13;;;;;;;;;;;18.00;55.90;;;;;;10243017;28;887;-75
2023/01/07 01:17:08;;;;;;;;;;;17.90;55.80;;;;;;10242266;28;888;-74
2023/01/07 01:22:04;;;;;;;;;;;18.00;55.80;;;;;;10243068;28;919;-75
2023/01/07 01:26:59;;;;;;;;;;;18.00;56.40;;;;;;10246694;28;1902;-75
2023/01/07 01:31:54;;;;;;;;;;;17.90;55.80;;;;;;10250479;28;829;-74
2023/01/07 01:36:50;;;;;;;;;;;18.00;55.80;;;;;;10250101;28;1733;-75
2023/01/07 01:41:45;;;;;;;;;;;18.00;55.80;;;;;;10249740;28;837;-75
2023/01/07 01:46:41;;;;;;;;;;;18.00;55.80;;;;;;10249226;28;1977;-75
2023/01/07 01:51:36;;;;;;;;;;;17.90;55.70;;;;;;10249146;28;932;-75
2023/01/07 01:56:31;;;;;;;;;;;17.90;55.80;;;;;;10249520;28;841;-75
2023/01/07 02:01:27;;;;;;;;;;;17.90;55.80;;;;;;10248629;28;1075;-75
2023/01/07 02:06:22;;;;;;;;;;;17.90;55.70;;;;;;10248514;28;1968;-74
2023/01/07 02:11:17;;;;;;;;;;;18.00;55.80;;;;;;10249129;28;861;-74
2023/01/07 02:16:13;;;;;;;;;;;17.90;55.70;;;;;;10248202;28;825;-75
2023/01/07 02:21:08;;;;;;;;;;;18.00;55.80;;;;;;10248021;28;782;-74
2023/01/07 02:26:04;;;;;;;;;;;17.90;55.70;;;;;;10247801;28;1894;-75
2023/01/07 02:30:59;;;;;;;;;;;17.90;55.70;;;;;;10248175;28;861;-75
2023/01/07 02:35:54;;;;;;;;;;;18.00;55.80;;;;;;10247638;28;1477;-75
2023/01/07 02:40:50;;;;;;;;;;;17.90;55.70;;;;;;10246760;28;932;-75
2023/01/07 02:45:45;;;;;;;;;;;17.90;55.60;;;;;;10246968;28;1972;-75
2023/01/07 02:50:41;;;;;;;;;;;17.90;55.70;;;;;;10247420;28;827;-75
2023/01/07 02:55:36;;;;;;;;;;;17.90;55.70;;;;;;10246649;28;781;-75
2023/01/07 03:00:31;;;;;;;;;;;17.90;55.70;;;;;;10247044;28;893;-75
2023/01/07 03:05:27;;;;;;;;;;;18.00;55.60;;;;;;10246807;28;1958;-75
2023/01/07 03:10:22;;;;;;;;;;;18.00;55.70;;;;;;10246803;28;856;-75
2023/01/07 03:15:17;;;;;;;;;;;17.90;55.50;;;;;;10246511;28;837;-75
2023/01/07 03:20:13;;;;;;;;;;;17.90;55.60;;;;;;10245721;28;905;-75
2023/01/07 03:25:08;;;;;;;;;;;17.90;55.50;;;;;;10246152;28;785;-75
2023/01/07 03:30:03;;;;;;;;;;;17.90;55.60;;;;;;10245380;28;1963;-75
2023/01/07 03:34:59;;;;;;;;;;;17.90;55.60;;;;;;10245236;28;1074;-75
2023/01/07 03:39:54;;;;;;;;;;;17.90;55.50;;;;;;10245129;28;869;-75
2023/01/07 03:44:49;;;;;;;;;;;17.90;55.50;;;;;;10244893;28;890;-75
2023/01/07 03:49:45;;;;;;;;;;;17.90;55.50;;;;;;10245200;28;1921;-75
2023/01/07 03:54:40;;;;;;;;;;;17.90;55.50;;;;;;10244621;28;893;-75
2023/01/07 03:59:36;;;;;;;;;;;17.90;55.50;;;;;;10244486;28;822;-75
2023/01/07 04:04:31;;;;;;;;;;;17.90;55.50;;;;;;10244332;28;800;-75
2023/01/07 04:09:26;;;;;;;;;;;17.90;55.50;;;;;;10244158;28;1969;-75
2023/01/07 04:14:22;;;;;;;;;;;17.90;55.50;;;;;;10245432;28;966;-75
2023/01/07 04:19:17;;;;;;;;;;;17.90;55.50;;;;;;10243988;28;786;-75
2023/01/07 04:24:12;;;;;;;;;;;17.90;55.50;;;;;;10243929;28;897;-75
2023/01/07 04:29:08;;;;;;;;;;;17.90;55.40;;;;;;10244293;28;1952;-75
2023/01/07 04:34:03;;;;;;;;;;;17.90;55.50;;;;;;10243958;28;1221;-75
2023/01/07 04:38:58;;;;;;;;;;;17.80;55.40;;;;;;10243085;28;945;-75
2023/01/07 04:43:54;;;;;;;;;;;17.90;55.40;;;;;;10244072;28;806;-75
2023/01/07 04:48:49;;;;;;;;;;;17.90;55.40;;;;;;10243406;28;1961;-75
2023/01/07 04:53:44;;;;;;;;;;;17.90;55.30;;;;;;10243322;28;796;-75
2023/01/07 04:58:40;;;;;;;;;;;17.90;55.30;;;;;;10243919;28;843;-75
2023/01/07 05:03:36;;;;;;;;;;;17.90;55.30;;;;;;10250814;28;894;-75
2023/01/07 05:08:31;;;;;;;;;;;17.90;55.30;;;;;;10250772;28;1979;-75
2023/01/07 05:13:26;;;;;;;;;;;17.90;55.30;;;;;;10250001;28;1102;-75
2023/01/07 05:18:22;;;;;;;;;;;17.90;55.20;;;;;;10250430;28;790;-75
2023/01/07 05:23:17;;;;;;;;;;;17.90;55.30;;;;;;10249993;28;955;-76
2023/01/07 05:28:12;;;;;;;;;;;17.90;55.30;;;;;;10250595;28;1907;-75
2023/01/07 05:33:08;;;;;;;;;;;17.90;55.20;;;;;;10250216;28;1173;-75
2023/01/07 05:38:03;;;;;;;;;;;17.90;55.10;;;;;;10249715;28;967;-75
2023/01/07 05:42:59;;;;;;;;;;;18.00;55.20;;;;;;10249517;28;906;-75
2023/01/07 05:47:54;;;;;;;;;;;18.00;55.10;;;;;;10249354;28;1965;-75
2023/01/07 05:52:49;;;;;;;;;;;18.00;55.10;;;;;;10249359;28;911;-75
2023/01/07 05:57:45;;;;;;;;;;;18.00;55.10;;;;;;10248986;28;805;-75
2023/01/07 06:02:40;;;;;;;;;;;18.00;55.00;;;;;;10248736;28;857;-75
2023/01/07 06:07:35;;;;;;;;;;;18.00;55.10;;;;;;10249462;28;1911;-75
2023/01/07 06:12:32;;;;;;;;;;;18.00;55.00;;;;;;10247205;28;811;-75
2023/01/07 06:17:28;;;;;;;;;;;18.00;55.00;;;;;;10248146;28;833;-76
2023/01/07 06:22:23;;;;;;;;;;;18.00;55.00;;;;;;10247996;28;872;-75
2023/01/07 06:27:19;;;;;;;;;;;18.00;54.90;;;;;;10247767;28;1906;-75
2023/01/07 06:32:14;;;;;;;;;;;18.00;54.90;;;;;;10247527;28;1017;-76
2023/01/07 06:37:09;;;;;;;;;;;18.00;54.90;;;;;;10247529;28;731;-75
2023/01/07 06:42:05;;;;;;;;;;;18.00;54.80;;;;;;10247837;28;874;-75
2023/01/07 06:47:00;;;;;;;;;;;18.00;54.80;;;;;;10246977;28;1957;-78
2023/01/07 06:51:56;;;;;;;;;;;18.00;54.80;;;;;;10247506;28;858;-78
2023/01/07 06:56:51;;;;;;;;;;;18.00;54.80;;;;;;10247323;28;927;-77
2023/01/07 07:01:46;;;;;;;;;;;18.00;54.70;;;;;;10247080;28;850;-77
2023/01/07 07:06:42;;;;;;;;;;;18.00;54.70;;;;;;10246063;28;1898;-77
2023/01/07 07:11:37;;;;;;;;;;;18.00;54.80;;;;;;10245984;28;765;-76
2023/01/07 07:16:32;;;;;;;;;;;18.00;54.80;;;;;;10245792;28;863;-76
2023/01/07 07:21:28;;;;;;;;;;;18.00;54.90;;;;;;10246300;28;893;-76
2023/01/07 07:26:23;;;;;;;;;;;18.00;54.90;;;;;;10245367;28;1954;-77
2023/01/07 07:31:19;;;;;;;;;;;18.00;55.10;;;;;;10245738;28;809;-77
2023/01/07 07:36:14;;;;;;;;;;;18.00;55.00;;;;;;10246133;28;1152;-78
2023/01/07 07:41:09;;;;;;;;;;;18.00;55.00;;;;;;10245046;28;944;-76
2023/01/07 07:46:05;;;;;;;;;;;18.20;55.50;;;;;;10245419;28;1977;-76
2023/01/07 07:51:00;;;;;;;;;;;18.40;55.80;;;;;;10244096;28;913;-76
2023/01/07 07:55:56;;;;;;;;;;;18.40;55.80;;;;;;10244619;28;883;-79
2023/01/07 08:00:52;;;;;;;;;;;18.40;55.90;;;;;;10244462;28;968;-78
2023/01/07 08:05:47;;;;;;;;;;;18.40;55.90;;;;;;10245304;28;1965;-79
2023/01/07 08:10:43;;;;;;;;;;;18.40;56.00;;;;;;10244849;28;806;-79
2023/01/07 08:15:38;;;;;;;;;;;18.40;55.80;;;;;;10244114;28;918;-79
2023/01/07 08:20:33;;;;;;;;;;;18.40;55.70;;;;;;10243838;28;755;-79
2023/01/07 08:25:29;;;;;;;;;;;18.40;55.80;;;;;;10243823;28;1902;-79
2023/01/07 08:30:24;;;;;;;;;;;18.40;55.60;;;;;;10243899;28;885;-78
2023/01/07 08:35:20;;;;;;;;;;;18.40;55.70;;;;;;10246161;28;1126;-78
2023/01/07 08:40:15;;;;;;;;;;;18.40;55.50;;;;;;10251927;28;835;-78
2023/01/07 08:45:10;;;;;;;;;;;18.40;55.50;;;;;;10251777;28;810;-78
2023/01/07 08:50:06;;;;;;;;;;;18.40;55.50;;;;;;10251464;28;1965;-82
2023/01/07 08:55:01;;;;;;;;;;;18.50;55.40;;;;;;10252000;28;814;-82
2023/01/07 08:59:56;;;;;;;;;;;18.40;55.60;;;;;;10251261;28;994;-77
2023/01/07 09:04:52;;;;;;;;;;;18.40;55.60;;;;;;10251249;28;978;-79
2023/01/07 09:09:47;;;;;;;;;;;18.40;55.70;;;;;;10251166;28;1894;-77
2023/01/07 09:14:43;;;;;;;;;;;18.40;55.60;;;;;;10250603;28;894;-75
2023/01/07 09:19:38;;;;;;;;;;;18.40;55.70;;;;;;10251282;28;818;-72
2023/01/07 09:24:33;;;;;;;;;;;18.50;55.70;;;;;;10250316;28;838;-73
2023/01/07 09:29:29;;;;;;;;;;;18.50;56.40;;;;;;10250036;28;1956;-73
2023/01/07 09:34:24;;;;;;;;;;;18.50;55.90;;;;;;10249670;28;1225;-72
2023/01/07 09:39:19;;;;;;;;;;;18.50;56.00;;;;;;10250588;28;811;-71
2023/01/07 09:44:15;;;;;;;;;;;18.50;56.00;;;;;;10250159;28;945;-73
2023/01/07 09:49:10;;;;;;;;;;;18.50;56.10;;;;;;10249131;28;1913;-73
2023/01/07 09:54:06;;;;;;;;;;;18.30;56.40;;;;;;10249764;28;878;-73
2023/01/07 09:59:01;;;;;;;;;;;18.20;56.50;;;;;;10249757;28;803;-73
2023/01/07 10:03:56;;;;;;;;;;;18.10;56.50;;;;;;10248806;28;814;-75
2023/01/07 10:08:52;;;;;;;;;;;18.10;56.40;;;;;;10248523;28;1902;-76
2023/01/07 10:13:47;;;;;;;;;;;18.10;56.30;;;;;;10247759;28;933;-76
2023/01/07 10:18:43;;;;;;;;;;;18.10;56.20;;;;;;10248228;28;802;-77
2023/01/07 10:23:38;;;;;;;;;;;18.10;56.20;;;;;;10247907;28;781;-74
2023/01/07 10:28:33;;;;;;;;;;;18.10;56.10;;;;;;10247769;28;1898;-78
2023/01/07 10:33:29;;;;;;;;;;;18.10;56.00;;;;;;10248404;28;1146;-78
2023/01/07 10:38:24;;;;;;;;;;;18.10;55.90;;;;;;10247527;28;823;-77
2023/01/07 10:43:19;;;;;;;;;;;18.10;55.80;;;;;;10246162;28;1098;-75
2023/01/07 10:48:15;;;;;;;;;;;18.10;55.70;;;;;;10237002;28;1906;-81
2023/01/07 10:53:10;;;;;;;;;;;18.10;55.70;;;;;;10245868;28;913;-76
2023/01/07 10:58:05;;;;;;;;;;;18.10;55.60;;;;;;10245917;28;815;-79
2023/01/07 11:03:01;;;;;;;;;;;18.20;55.80;;;;;;10246512;28;1003;-79
2023/01/07 11:07:56;;;;;;;;;;;18.30;56.00;;;;;;10245628;28;1918;-72
2023/01/07 11:12:51;;;;;;;;;;;18.30;55.80;;;;;;10245744;28;976;-79
2023/01/07 11:17:47;;;;;;;;;;;18.20;56.20;;;;;;10245193;28;878;-78
2023/01/07 11:22:42;;;;;;;;;;;18.20;55.80;;;;;;10219028;28;860;-82
2023/01/07 11:27:38;;;;;;;;;;;18.10;55.60;;;;;;10204918;28;1898;-78
2023/01/07 11:32:33;;;;;;;;;;;18.10;55.80;;;;;;10205043;28;1280;-78
2023/01/07 11:37:28;;;;;;;;;;;18.00;55.60;;;;;;10204135;28;898;-79
2023/01/07 11:42:39;;;;;;;;;;;18.00;55.60;;;;;;10204453;28;776;-78
2023/01/07 11:47:34;;;;;;;;;;;18.00;55.60;;;;;;10213227;28;1973;-78
2023/01/07 11:52:30;;;;;;;;;;;18.00;55.60;;;;;;10244859;28;1027;-78
2023/01/07 11:57:25;;;;;;;;;;;18.00;55.30;;;;;;10245015;28;952;-78
2023/01/07 12:02:20;;;;;;;;;;;18.00;55.40;;;;;;10244039;28;892;-78
2023/01/07 12:07:16;;;;;;;;;;;18.00;55.10;;;;;;10243818;28;1959;-74
2023/01/07 12:12:30;;;;;;;;;;;18.30;56.10;;;;;;10243873;28;821;-74
2023/01/07 12:17:25;;;;;;;;;;;18.40;56.10;;;;;;10243860;28;1109;-74
2023/01/07 12:22:21;;;;;;;;;;;18.50;56.20;;;;;;10244416;28;864;-74
2023/01/07 12:27:16;;;;;;;;;;;18.50;56.40;;;;;;10243189;28;1955;-75
2023/01/07 12:32:11;;;;;;;;;;;18.60;55.70;;;;;;10244003;28;1161;-74
2023/01/07 12:37:07;;;;;;;;;;;18.60;55.80;;;;;;10243438;28;895;-75
2023/01/07 12:42:02;;;;;;;;;;;18.60;55.70;;;;;;10243248;28;920;-74
2023/01/07 12:46:57;;;;;;;;;;;18.70;55.70;;;;;;10242546;28;1902;-75
2023/01/07 12:51:54;;;;;;;;;;;18.60;56.10;;;;;;10242255;28;935;-79
2023/01/07 12:56:49;;;;;;;;;;;18.30;56.20;;;;;;10243962;28;774;-77
2023/01/07 13:01:44;;;;;;;;;;;18.20;56.30;;;;;;10243900;28;823;-78
2023/01/07 13:06:41;;;;;;;;;;;18.30;56.30;;;;;;10243446;28;1957;-85
2023/01/07 13:16:50;;;;;;;;;;;18.30;56.20;;;;;;10242582;28;649;-77
2023/01/07 13:21:46;;;;;;;;;;;18.30;56.00;;;;;;10245262;28;781;-77
2023/01/07 13:26:41;;;;;;;;;;;18.40;55.90;;;;;;10250006;28;1937;-77
2023/01/07 13:31:36;;;;;;;;;;;18.40;55.70;;;;;;10250774;28;797;-76
2023/01/07 13:36:32;;;;;;;;;;;18.40;55.40;;;;;;10249495;28;1289;-76
2023/01/07 13:41:27;;;;;;;;;;;18.40;55.50;;;;;;10249573;28;798;-77
2023/01/07 13:46:23;;;;;;;;;;;18.40;55.30;;;;;;10248749;28;1910;-76
2023/01/07 13:51:19;;;;;;;;;;;18.40;55.20;;;;;;10248693;28;846;-77
2023/01/07 13:56:14;;;;;;;;;;;18.30;55.10;;;;;;10249062;28;880;-76
2023/01/07 14:01:10;;;;;;;;;;;18.30;55.30;;;;;;10249616;28;801;-76
2023/01/07 14:06:05;;;;;;;;;;;18.30;54.90;;;;;;10247947;28;1902;-77
2023/01/07 14:11:01;;;;;;;;;;;18.30;54.80;;;;;;10247838;28;881;-77
2023/01/07 14:15:56;;;;;;;;;;;18.30;54.90;;;;;;10248683;28;821;-78
2023/01/07 14:20:51;;;;;;;;;;;18.20;54.80;;;;;;10248054;28;1221;-78
2023/01/07 14:25:47;;;;;;;;;;;18.30;54.90;;;;;;10247382;28;1906;-81
2023/01/07 14:30:42;;;;;;;;;;;18.40;55.20;;;;;;10249057;28;845;-79
2023/01/07 14:35:39;;;;;;;;;;;18.50;55.50;;;;;;10246660;28;1410;-78
2023/01/07 14:40:36;;;;;;;;;;;18.50;55.30;;;;;;10246517;28;1305;-80
2023/01/07 14:45:31;;;;;;;;;;;18.60;55.50;;;;;;10247272;28;898;-74
2023/01/07 14:50:26;;;;;;;;;;;18.60;55.70;;;;;;10247074;28;1906;-75
2023/01/07 14:55:22;;;;;;;;;;;18.70;55.20;;;;;;10209027;28;1058;-75
2023/01/07 15:00:17;;;;;;;;;;;18.70;55.50;;;;;;10205616;28;845;-75
2023/01/07 15:05:13;;;;;;;;;;;18.80;55.90;;;;;;10205346;28;921;-74
2023/01/07 15:20:36;;;;;;;;;;;18.40;55.90;;;;;;10204685;28;680;-75
2023/01/07 15:25:31;;;;;;;;;;;18.20;56.10;;;;;;10204764;28;956;-76
2023/01/07 15:30:27;;;;;;;;;;;18.10;56.10;;;;;;10205087;28;1979;-76
2023/01/07 15:35:22;;;;;;;;;;;18.10;56.40;;;;;;10203710;28;1315;-75
2023/01/07 15:40:18;;;;;;;;;;;18.10;56.40;;;;;;10234126;28;873;-75
2023/01/07 15:45:13;;;;;;;;;;;18.10;56.10;;;;;;10243359;28;845;-75
2023/01/07 15:50:08;;;;;;;;;;;18.10;56.10;;;;;;10245065;28;1902;-76
2023/01/07 15:55:04;;;;;;;;;;;18.10;55.80;;;;;;10244322;28;956;-76
2023/01/07 15:59:59;;;;;;;;;;;18.10;55.90;;;;;;10244260;28;892;-76
2023/01/07 16:04:54;;;;;;;;;;;18.10;55.60;;;;;;10244423;28;861;-76
2023/01/07 16:09:50;;;;;;;;;;;18.00;55.70;;;;;;10243842;28;1894;-75
2023/01/07 16:14:45;;;;;;;;;;;18.00;55.80;;;;;;10243767;28;1169;-76
2023/01/07 16:19:41;;;;;;;;;;;18.00;55.60;;;;;;10243703;28;917;-72
2023/01/07 16:24:36;;;;;;;;;;;18.00;56.20;;;;;;10243639;28;1169;-75
2023/01/07 16:29:31;;;;;;;;;;;18.00;55.60;;;;;;10242822;28;1995;-75
2023/01/07 16:34:29;;;;;;;;;;;18.00;55.60;;;;;;10243551;28;1303;-75
2023/01/07 16:39:24;;;;;;;;;;;18.00;55.50;;;;;;10243313;28;903;-75
2023/01/07 16:44:19;;;;;;;;;;;18.30;56.60;;;;;;10243273;28;810;-73
2023/01/07 16:49:15;;;;;;;;;;;18.60;56.50;;;;;;10243060;28;1979;-74
2023/01/07 16:54:10;;;;;;;;;;;18.70;56.40;;;;;;10242496;28;1148;-74
2023/01/07 16:59:05;;;;;;;;;;;18.70;56.50;;;;;;10221928;28;884;-74
2023/01/07 17:04:01;;;;;;;;;;;18.80;56.50;;;;;;10210535;28;952;-74
2023/01/07 17:08:56;;;;;;;;;;;18.70;56.70;;;;;;10210125;28;1898;-74
2023/01/07 17:13:52;;;;;;;;;;;18.80;56.70;;;;;;10210133;28;966;-73
2023/01/07 17:18:47;;;;;;;;;;;18.70;56.70;;;;;;10209935;28;811;-76
2023/01/07 17:23:44;;;;;;;;;;;18.70;56.80;;;;;;10210212;28;1021;-76
2023/01/07 17:28:39;;;;;;;;;;;18.50;56.80;;;;;;10208010;28;1902;-77
2023/01/07 17:33:35;;;;;;;;;;;18.30;57.00;;;;;;10249558;28;1153;-76
2023/01/07 17:38:30;;;;;;;;;;;18.10;57.10;;;;;;10250059;28;879;-76
2023/01/07 17:43:36;;;;;;;;;;;18.10;57.30;;;;;;10249160;28;849;-75
2023/01/07 17:48:31;;;;;;;;;;;18.10;57.20;;;;;;10248626;28;1910;-76
2023/01/07 17:53:27;;;;;;;;;;;18.10;57.00;;;;;;10249025;28;1101;-73
2023/01/07 17:58:22;;;;;;;;;;;18.10;56.80;;;;;;10249024;28;802;-72
2023/01/07 18:03:17;;;;;;;;;;;18.10;56.80;;;;;;10248911;28;880;-78
2023/01/07 18:08:13;;;;;;;;;;;18.10;56.70;;;;;;10248617;28;1879;-76
2023/01/07 18:13:08;;;;;;;;;;;18.10;56.60;;;;;;10248334;28;767;-77
2023/01/07 18:18:04;;;;;;;;;;;18.10;56.50;;;;;;10248969;28;878;-77
2023/01/07 18:22:59;;;;;;;;;;;18.10;56.40;;;;;;10248051;28;917;-72
2023/01/07 18:27:55;;;;;;;;;;;18.10;56.40;;;;;;10247776;28;1898;-72
2023/01/07 18:32:52;;;;;;;;;;;18.10;56.20;;;;;;10248268;28;1296;-73
2023/01/07 18:37:47;;;;;;;;;;;18.00;56.10;;;;;;10247398;28;847;-73
2023/01/07 18:42:43;;;;;;;;;;;18.00;56.00;;;;;;10247221;28;903;-73
2023/01/07 18:47:38;;;;;;;;;;;18.00;56.00;;;;;;10246417;28;1906;-73
2023/01/07 18:52:33;;;;;;;;;;;18.00;55.70;;;;;;10246892;28;802;-76
2023/01/07 18:57:29;;;;;;;;;;;18.00;55.60;;;;;;10246962;28;887;-77
2023/01/07 19:02:24;;;;;;;;;;;18.00;55.40;;;;;;10245256;28;1122;-84
2023/01/07 19:07:20;;;;;;;;;;;18.10;55.10;;;;;;10246472;28;1973;-88
2023/01/07 19:12:16;;;;;;;;;;;18.10;55.20;;;;;;10246314;28;774;-88
2023/01/07 19:17:11;;;;;;;;;;;18.00;55.20;;;;;;10246261;28;856;-80
2023/01/07 19:22:06;;;;;;;;;;;18.10;55.20;;;;;;10245359;28;891;-79
2023/01/07 19:27:02;;;;;;;;;;;18.10;55.20;;;;;;10245684;28;1906;-79
2023/01/07 19:31:57;;;;;;;;;;;18.00;55.20;;;;;;10244755;28;956;-79
2023/01/07 19:36:52;;;;;;;;;;;18.10;55.30;;;;;;10245105;28;1478;-78
2023/01/07 19:41:48;;;;;;;;;;;18.10;55.40;;;;;;10245518;28;1013;-80
2023/01/07 19:46:43;;;;;;;;;;;18.10;55.30;;;;;;10244726;28;1918;-79
2023/01/07 19:51:39;;;;;;;;;;;18.10;55.20;;;;;;10244539;28;851;-80
2023/01/07 19:56:35;;;;;;;;;;;18.10;55.00;;;;;;10244719;28;852;-79
2023/01/07 20:01:30;;;;;;;;;;;18.00;55.00;;;;;;10244791;28;1055;-79
2023/01/07 20:06:26;;;;;;;;;;;18.10;55.00;;;;;;10244399;28;1906;-79
2023/01/07 20:11:21;;;;;;;;;;;18.00;55.10;;;;;;10244115;28;879;-78
2023/01/07 20:16:16;;;;;;;;;;;18.00;55.00;;;;;;10244725;28;810;-83
2023/01/07 20:21:12;;;;;;;;;;;18.10;54.90;;;;;;10243979;28;877;-83
2023/01/07 20:26:07;;;;;;;;;;;18.10;55.00;;;;;;10243649;28;1907;-84
2023/01/07 20:31:03;;;;;;;;;;;18.10;54.70;;;;;;10244521;28;782;-82
2023/01/07 20:35:58;;;;;;;;;;;18.10;54.80;;;;;;10251491;28;1196;-82
2023/01/07 20:40:53;;;;;;;;;;;18.10;54.70;;;;;;10251886;28;882;-81
2023/01/07 20:45:49;;;;;;;;;;;18.00;54.60;;;;;;10252124;28;1914;-81
2023/01/07 20:50:44;;;;;;;;;;;18.00;54.30;;;;;;10250929;28;916;-82
2023/01/07 20:55:39;;;;;;;;;;;18.00;54.50;;;;;;10251495;28;975;-81
2023/01/07 21:00:35;;;;;;;;;;;18.00;54.30;;;;;;10251172;28;847;-82
2023/01/07 21:05:30;;;;;;;;;;;18.00;54.40;;;;;;10251499;28;890;-78
2023/01/07 21:10:25;;;;;;;;;;;18.00;54.30;;;;;;10251569;28;1961;-87
2023/01/07 21:15:21;;;;;;;;;;;18.00;54.20;;;;;;10250573;28;946;-73
2023/01/07 21:20:16;;;;;;;;;;;18.00;54.40;;;;;;10250304;28;782;-75
2023/01/07 21:25:14;;;;;;;;;;;18.00;54.30;;;;;;10249544;28;889;-75
2023/01/07 21:30:18;;;;;;;;;;;18.00;54.20;;;;;;10250933;28;1898;-74
2023/01/07 21:35:13;;;;;;;;;;;18.00;54.20;;;;;;10249607;28;1234;-95
2023/01/07 21:40:09;;;;;;;;;;;18.00;54.20;;;;;;10249729;28;1350;-82
2023/01/07 21:45:04;;;;;;;;;;;18.00;54.20;;;;;;10249082;28;779;-79
2023/01/07 21:50:00;;;;;;;;;;;18.00;54.20;;;;;;10248752;28;1977;-79
2023/01/07 21:54:55;;;;;;;;;;;18.00;54.30;;;;;;10248765;28;1195;-83
2023/01/07 21:59:50;;;;;;;;;;;18.00;54.20;;;;;;10249524;28;884;-82
2023/01/07 22:04:46;;;;;;;;;;;18.00;54.20;;;;;;10249368;28;873;-79
2023/01/07 22:09:41;;;;;;;;;;;18.00;54.30;;;;;;10248943;28;1961;-79
2023/01/07 22:14:37;;;;;;;;;;;18.00;54.30;;;;;;10249475;28;921;-82
2023/01/07 22:19:33;;;;;;;;;;;18.00;54.20;;;;;;10248122;28;887;-81
2023/01/07 22:24:28;;;;;;;;;;;18.00;54.30;;;;;;10247484;28;1043;-82
2023/01/07 22:29:23;;;;;;;;;;;18.00;54.40;;;;;;10247836;28;1965;-76
2023/01/07 22:34:19;;;;;;;;;;;18.00;54.30;;;;;;10248802;28;1145;-78
2023/01/07 22:39:14;;;;;;;;;;;18.00;54.10;;;;;;10247706;28;917;-78
2023/01/07 22:44:09;;;;;;;;;;;18.00;54.60;;;;;;10246028;28;826;-76
2023/01/07 22:49:05;;;;;;;;;;;18.00;54.50;;;;;;10247035;28;1964;-75
2023/01/07 22:54:00;;;;;;;;;;;18.00;54.50;;;;;;10246181;28;794;-76
2023/01/07 22:58:55;;;;;;;;;;;18.00;54.40;;;;;;10246811;28;910;-77
2023/01/07 23:03:51;;;;;;;;;;;18.00;54.40;;;;;;10246272;28;900;-76
2023/01/07 23:08:46;;;;;;;;;;;18.00;54.30;;;;;;10247003;28;1953;-77
2023/01/07 23:13:42;;;;;;;;;;;18.00;54.30;;;;;;10246278;28;980;-77
2023/01/07 23:18:37;;;;;;;;;;;18.00;54.40;;;;;;10246954;28;918;-77
2023/01/07 23:23:32;;;;;;;;;;;18.00;54.30;;;;;;10246507;28;826;-77
2023/01/07 23:28:28;;;;;;;;;;;18.00;54.30;;;;;;10246778;28;1963;-77
2023/01/07 23:33:23;;;;;;;;;;;18.00;54.30;;;;;;10245512;28;1314;-77
2023/01/07 23:38:18;;;;;;;;;;;18.00;54.30;;;;;;10244790;28;866;-77
2023/01/07 23:43:14;;;;;;;;;;;18.00;54.20;;;;;;10245279;28;895;-76
2023/01/07 23:48:09;;;;;;;;;;;18.00;54.30;;;;;;10245622;28;1954;-77
2023/01/07 23:53:07;;;;;;;;;;;18.00;54.20;;;;;;10245557;28;790;-77
2023/01/07 23:58:02;;;;;;;;;;;18.00;54.20;;;;;;10245444;28;904;-77
